createdAt,value
2023-05-03T00:00:09.556Z,1.90
2023-05-03T00:02:40.355Z,3.73
2023-05-03T00:05:09.920Z,1.80
2023-05-03T00:07:38.015Z,2.03
2023-05-03T00:10:07.018Z,1.67
2023-05-03T00:12:35.000Z,2.53
2023-05-03T00:15:03.054Z,2.63
2023-05-03T00:17:32.536Z,1.47
2023-05-03T00:20:00.763Z,2.07
2023-05-03T00:22:29.010Z,2.80
2023-05-03T00:24:57.094Z,2.57
2023-05-03T00:27:25.311Z,1.73
2023-05-03T00:29:53.690Z,2.50
2023-05-03T00:32:22.794Z,1.90
2023-05-03T00:34:56.236Z,2.23
2023-05-03T00:37:24.949Z,2.57
2023-05-03T00:39:53.531Z,2.03
2023-05-03T00:42:21.553Z,2.03
2023-05-03T00:44:49.617Z,1.97
2023-05-03T00:47:18.545Z,2.20
2023-05-03T00:49:46.743Z,1.93
2023-05-03T00:52:16.532Z,2.07
2023-05-03T00:54:44.784Z,2.50
2023-05-03T00:57:13.003Z,2.20
2023-05-03T00:59:41.377Z,2.40
2023-05-03T01:02:09.599Z,2.00
2023-05-03T01:04:38.838Z,2.30
2023-05-03T01:07:16.652Z,2.33
2023-05-03T01:09:54.775Z,1.83
2023-05-03T01:27:36.157Z,1.70
2023-05-03T01:30:05.609Z,2.33
2023-05-03T01:32:43.019Z,2.50
2023-05-03T01:35:20.286Z,2.30
2023-05-03T01:37:49.156Z,1.60
2023-05-03T01:40:19.871Z,2.37
2023-05-03T01:42:49.861Z,1.63
2023-05-03T01:45:18.295Z,2.00
2023-05-03T01:47:46.331Z,2.20
2023-05-03T01:50:14.393Z,1.87
2023-05-03T01:52:42.469Z,2.10
2023-05-03T01:55:11.083Z,1.90
2023-05-03T01:57:39.135Z,2.07
2023-05-03T02:00:10.244Z,1.70
2023-05-03T02:02:38.337Z,2.40
2023-05-03T02:05:07.381Z,2.03
2023-05-03T02:07:35.481Z,2.27
2023-05-03T02:10:03.864Z,2.60
2023-05-03T02:12:32.056Z,2.03
2023-05-03T02:15:00.049Z,2.07
2023-05-03T02:17:29.463Z,2.20
2023-05-03T02:19:57.426Z,2.87
2023-05-03T02:22:25.438Z,2.07
2023-05-03T02:24:53.447Z,1.80
2023-05-03T02:27:21.518Z,2.10
2023-05-03T02:29:49.538Z,1.90
2023-05-03T02:32:17.663Z,2.33
2023-05-03T02:34:49.240Z,1.70
2023-05-03T02:37:17.590Z,1.83
2023-05-03T02:39:45.637Z,1.70
2023-05-03T02:42:13.655Z,1.90
2023-05-03T02:44:41.730Z,3.00
2023-05-03T02:47:10.276Z,2.03
2023-05-03T02:49:38.296Z,1.70
2023-05-03T02:52:08.260Z,3.13
2023-05-03T02:54:36.331Z,1.90
2023-05-03T02:57:04.711Z,2.67
2023-05-03T02:59:33.451Z,2.67
2023-05-03T03:02:01.574Z,2.60
2023-05-03T03:04:29.703Z,1.70
2023-05-03T03:06:57.881Z,1.80
2023-05-03T03:09:27.281Z,1.87
2023-05-03T03:11:55.704Z,1.67
2023-05-03T03:14:23.802Z,2.40
2023-05-03T03:16:52.900Z,2.33
2023-05-03T03:19:21.013Z,1.87
2023-05-03T03:21:49.077Z,2.23
2023-05-03T03:24:17.258Z,4.17
2023-05-03T03:26:46.763Z,1.97
2023-05-03T03:29:14.829Z,1.60
2023-05-03T03:31:42.976Z,1.90
2023-05-03T03:34:11.056Z,1.60
2023-05-03T03:36:39.360Z,1.93
2023-05-03T03:39:07.585Z,1.60
2023-05-03T03:41:37.333Z,1.80
2023-05-03T03:44:07.126Z,1.60
2023-05-03T03:46:35.404Z,1.47
2023-05-03T03:49:03.554Z,1.60
2023-05-03T03:51:31.618Z,1.70
2023-05-03T03:54:00.185Z,1.37
2023-05-03T03:56:28.207Z,1.33
2023-05-03T03:58:56.477Z,1.63
2023-05-03T04:01:26.492Z,2.13
2023-05-03T04:03:54.620Z,2.20
2023-05-03T04:06:22.832Z,2.43
2023-05-03T04:08:50.990Z,1.87
2023-05-03T04:11:18.954Z,2.00
2023-05-03T04:13:46.943Z,1.90
2023-05-03T04:16:15.471Z,2.10
2023-05-03T04:18:45.451Z,2.00
2023-05-03T04:21:13.446Z,2.33
2023-05-03T04:23:41.451Z,4.77
2023-05-03T04:26:14.592Z,3.47
2023-05-03T04:28:52.437Z,6.83
2023-05-03T04:31:21.113Z,4.40
2023-05-03T04:33:50.795Z,3.10
2023-05-03T04:36:18.898Z,4.00
2023-05-03T04:38:47.054Z,2.90
2023-05-03T04:41:16.120Z,4.30
2023-05-03T04:43:44.266Z,3.40
2023-05-03T04:46:12.322Z,4.00
2023-05-03T04:48:40.472Z,2.80
2023-05-03T04:51:09.998Z,3.00
2023-05-03T04:53:38.126Z,3.50
2023-05-03T04:56:07.544Z,3.50
2023-05-03T04:58:36.666Z,3.47
2023-05-03T05:01:04.866Z,3.50
2023-05-03T05:03:32.926Z,3.90
2023-05-03T05:06:01.062Z,4.10
2023-05-03T05:08:30.819Z,3.83
2023-05-03T05:10:58.840Z,4.10
2023-05-03T05:13:27.116Z,3.80
2023-05-03T05:15:55.732Z,2.90
2023-05-03T05:18:23.781Z,3.57
2023-05-03T05:20:51.797Z,3.17
2023-05-03T05:23:20.248Z,4.40
2023-05-03T05:25:49.884Z,3.80
2023-05-03T05:28:18.022Z,3.27
2023-05-03T05:30:46.061Z,6.10
2023-05-03T05:33:14.326Z,4.73
2023-05-03T05:35:43.657Z,3.17
2023-05-03T05:38:12.375Z,4.03
2023-05-03T05:40:40.436Z,4.20
2023-05-03T05:43:09.821Z,5.03
2023-05-03T05:45:38.097Z,4.50
2023-05-03T05:48:06.692Z,4.27
2023-05-03T05:50:34.779Z,4.00
2023-05-03T05:53:03.109Z,4.67
2023-05-03T05:55:31.128Z,5.63
2023-05-03T05:57:59.177Z,4.37
2023-05-03T06:00:28.629Z,3.20
2023-05-03T06:02:56.669Z,3.90
2023-05-03T06:05:24.901Z,3.97
2023-05-03T06:07:52.985Z,3.40
2023-05-03T06:10:21.244Z,4.73
2023-05-03T06:12:49.364Z,6.10
2023-05-03T06:15:17.420Z,3.90
2023-05-03T06:17:47.305Z,4.57
2023-05-03T06:20:16.549Z,4.60
2023-05-03T06:22:44.592Z,4.07
2023-05-03T06:25:15.071Z,4.10
2023-05-03T06:27:44.077Z,4.40
2023-05-03T06:30:12.996Z,4.60
2023-05-03T06:32:42.264Z,4.50
2023-05-03T06:35:12.618Z,3.50
2023-05-03T06:37:40.831Z,5.10
2023-05-03T06:40:10.383Z,4.30
2023-05-03T06:42:38.598Z,3.83
2023-05-03T06:45:08.362Z,3.87
2023-05-03T06:47:37.234Z,5.20
2023-05-03T06:50:06.295Z,3.97
2023-05-03T06:52:35.864Z,4.37
2023-05-03T06:55:04.853Z,4.90
2023-05-03T06:57:33.139Z,5.37
2023-05-03T07:00:01.292Z,5.27
2023-05-03T07:02:29.571Z,3.43
2023-05-03T07:04:57.636Z,5.13
2023-05-03T07:07:25.709Z,4.07
2023-05-03T07:09:54.994Z,4.93
2023-05-03T07:12:27.540Z,4.60
2023-05-03T07:14:56.096Z,5.63
2023-05-03T07:17:24.362Z,4.90
2023-05-03T07:19:53.265Z,4.10
2023-05-03T07:22:24.771Z,4.43
2023-05-03T07:24:55.042Z,6.13
2023-05-03T07:27:23.091Z,4.00
2023-05-03T07:29:51.158Z,5.73
2023-05-03T07:32:19.371Z,4.30
2023-05-03T07:34:47.537Z,4.70
2023-05-03T07:37:15.582Z,5.20
2023-05-03T07:39:43.558Z,5.13
2023-05-03T07:42:12.931Z,5.47
2023-05-03T07:44:41.178Z,5.23
2023-05-03T07:47:09.215Z,4.63
2023-05-03T07:49:38.927Z,5.47
2023-05-03T07:52:06.970Z,5.23
2023-05-03T07:54:35.114Z,5.03
2023-05-03T07:57:03.892Z,4.90
2023-05-03T07:59:33.345Z,4.93
2023-05-03T08:02:02.022Z,5.17
2023-05-03T08:04:30.311Z,6.50
2023-05-03T08:07:01.184Z,4.93
2023-05-03T08:09:29.320Z,6.53
2023-05-03T08:11:58.117Z,6.10
2023-05-03T08:14:27.656Z,4.93
2023-05-03T08:16:57.073Z,5.33
2023-05-03T08:19:25.027Z,5.00
2023-05-03T08:21:55.741Z,5.20
2023-05-03T08:24:25.517Z,5.23
2023-05-03T08:26:54.003Z,5.33
2023-05-03T08:29:22.212Z,6.70
2023-05-03T08:31:50.328Z,5.67
2023-05-03T08:34:19.725Z,5.40
2023-05-03T08:36:47.693Z,5.20
2023-05-03T08:39:15.837Z,6.90
2023-05-03T08:41:44.363Z,6.17
2023-05-03T08:44:14.648Z,6.30
2023-05-03T08:46:44.785Z,5.80
2023-05-03T08:49:14.783Z,5.50
2023-05-03T08:51:47.168Z,4.70
2023-05-03T08:54:15.830Z,4.70
2023-05-03T08:56:46.586Z,5.37
2023-05-03T08:59:17.335Z,5.90
2023-05-03T09:01:45.825Z,5.43
2023-05-03T09:04:14.195Z,5.50
2023-05-03T09:06:43.678Z,5.10
2023-05-03T09:09:12.185Z,5.73
2023-05-03T09:11:40.653Z,5.90
2023-05-03T09:14:13.494Z,6.07
2023-05-03T09:16:43.249Z,5.73
2023-05-03T09:19:12.693Z,5.53
2023-05-03T09:21:41.905Z,5.47
2023-05-03T09:24:17.565Z,5.97
2023-05-03T09:26:47.120Z,5.80
2023-05-03T09:29:30.064Z,5.57
2023-05-03T09:32:02.098Z,6.43
2023-05-03T09:34:30.205Z,5.50
2023-05-03T09:36:58.332Z,5.33
2023-05-03T09:39:27.856Z,4.90
2023-05-03T09:41:55.915Z,5.27
2023-05-03T09:44:41.998Z,6.60
2023-05-03T09:47:10.602Z,5.20
2023-05-03T09:49:39.555Z,6.53
2023-05-03T09:52:08.763Z,7.43
2023-05-03T09:54:38.425Z,6.90
2023-05-03T09:57:08.051Z,7.20
2023-05-03T09:59:37.206Z,7.80
2023-05-03T10:02:07.548Z,5.23
2023-05-03T10:04:43.455Z,5.40
2023-05-03T10:07:15.231Z,6.07
2023-05-03T10:09:46.608Z,4.80
2023-05-03T10:12:17.434Z,6.03
2023-05-03T10:14:48.035Z,5.13
2023-05-03T10:17:31.928Z,5.83
2023-05-03T10:20:16.076Z,7.03
2023-05-03T10:23:09.473Z,5.30
2023-05-03T10:25:40.957Z,5.13
2023-05-03T10:28:10.588Z,5.50
2023-05-03T10:30:39.877Z,5.07
2023-05-03T10:33:40.892Z,5.07
2023-05-03T10:36:14.265Z,5.30
2023-05-03T10:38:44.097Z,6.00
2023-05-03T10:41:13.658Z,5.70
2023-05-03T10:43:48.274Z,7.07
2023-05-03T10:46:34.482Z,5.57
2023-05-03T10:49:19.920Z,4.83
2023-05-03T10:51:48.007Z,6.23
2023-05-03T10:54:17.108Z,7.37
2023-05-03T10:57:01.785Z,4.50
2023-05-03T10:59:48.591Z,5.43
2023-05-03T11:02:20.090Z,5.83
2023-05-03T11:04:51.718Z,5.50
2023-05-03T11:07:21.603Z,4.77
2023-05-03T11:09:49.631Z,4.70
2023-05-03T11:12:18.951Z,5.93
2023-05-03T11:14:46.896Z,5.60
2023-05-03T11:17:14.911Z,5.37
2023-05-03T11:19:44.748Z,5.03
2023-05-03T11:22:13.320Z,6.07
2023-05-03T11:24:41.272Z,5.50
2023-05-03T11:27:13.918Z,4.20
2023-05-03T11:29:49.248Z,4.97
2023-05-03T11:32:18.245Z,5.30
2023-05-03T11:34:46.419Z,4.50
2023-05-03T11:37:14.408Z,4.97
2023-05-03T11:39:43.534Z,4.90
2023-05-03T11:42:11.690Z,5.20
2023-05-03T11:44:39.805Z,4.50
2023-05-03T11:47:09.520Z,5.47
2023-05-03T11:49:37.751Z,4.67
2023-05-03T11:52:06.054Z,5.00
2023-05-03T11:54:34.139Z,5.10
2023-05-03T11:57:13.659Z,5.20
2023-05-03T11:59:42.307Z,5.77
2023-05-03T12:02:14.058Z,5.40
2023-05-03T12:04:45.109Z,5.63
2023-05-03T12:07:17.559Z,5.03
2023-05-03T12:09:59.799Z,6.43
2023-05-03T12:15:04.993Z,5.27
2023-05-03T12:17:39.524Z,4.30
2023-05-03T12:20:51.887Z,5.50
2023-05-03T12:23:09.894Z,4.77
2023-05-03T12:25:40.573Z,4.80
2023-05-03T12:28:20.238Z,5.20
2023-05-03T12:30:56.067Z,5.17
2023-05-03T12:33:28.533Z,6.77
2023-05-03T12:35:59.014Z,4.90
2023-05-03T12:38:30.603Z,5.77
2023-05-03T12:40:59.838Z,4.90
2023-05-03T12:43:27.843Z,6.00
2023-05-03T12:48:33.852Z,6.00
2023-05-03T12:51:18.756Z,4.63
2023-05-03T12:53:54.138Z,5.37
2023-05-03T12:56:24.705Z,5.33
2023-05-03T12:59:18.929Z,4.37
2023-05-03T13:06:45.193Z,5.10
2023-05-03T13:09:20.836Z,4.83
2023-05-03T13:11:51.239Z,4.47
2023-05-03T13:14:19.404Z,4.43
2023-05-03T13:16:49.280Z,5.63
2023-05-03T13:19:18.998Z,4.30
2023-05-03T13:21:49.403Z,5.07
2023-05-03T13:24:17.607Z,4.77
2023-05-03T13:26:45.664Z,4.70
2023-05-03T13:29:13.713Z,5.30
2023-05-03T13:31:41.818Z,5.97
2023-05-03T13:34:09.916Z,5.10
2023-05-03T13:36:39.268Z,3.87
2023-05-03T13:39:09.799Z,4.50
2023-05-03T13:41:40.590Z,4.43
2023-05-03T13:44:09.732Z,4.37
2023-05-03T13:46:38.421Z,4.40
2023-05-03T13:49:07.376Z,4.43
2023-05-03T13:51:35.998Z,5.03
2023-05-03T13:54:07.162Z,4.83
2023-05-03T13:56:36.217Z,4.47
2023-05-03T13:59:04.487Z,4.60
2023-05-03T14:01:32.588Z,5.23
2023-05-03T14:04:00.839Z,3.90
2023-05-03T14:06:30.979Z,4.77
2023-05-03T14:09:01.591Z,4.70
2023-05-03T14:11:31.939Z,4.17
2023-05-03T14:14:01.327Z,4.07
2023-05-03T14:19:01.609Z,7.97
2023-05-03T14:21:31.880Z,4.87
2023-05-03T14:24:00.186Z,5.30
2023-05-03T14:26:29.584Z,4.43
2023-05-03T14:29:00.879Z,4.70
2023-05-03T14:31:29.063Z,4.63
2023-05-03T14:33:57.383Z,4.37
2023-05-03T14:36:25.617Z,4.33
2023-05-03T14:38:53.782Z,3.93
2023-05-03T14:41:21.986Z,4.87
2023-05-03T14:43:50.052Z,4.10
2023-05-03T14:46:19.492Z,4.97
2023-05-03T14:48:47.629Z,4.30
2023-05-03T14:51:16.174Z,4.30
2023-05-03T14:53:44.145Z,4.97
2023-05-03T14:56:12.209Z,4.13
2023-05-03T14:58:40.311Z,4.50
2023-05-03T15:01:08.704Z,4.70
2023-05-03T15:03:38.293Z,4.30
2023-05-03T15:06:06.815Z,3.70
2023-05-03T15:08:35.326Z,3.93
2023-05-03T15:11:03.542Z,4.20
2023-05-03T15:13:31.744Z,4.97
2023-05-03T15:15:59.826Z,3.93
2023-05-03T15:18:27.885Z,4.27
2023-05-03T15:20:57.613Z,4.23
2023-05-03T15:23:25.834Z,4.00
2023-05-03T15:25:53.924Z,4.10
2023-05-03T15:28:22.070Z,4.40
2023-05-03T15:30:50.807Z,3.90
2023-05-03T15:33:19.097Z,4.83
2023-05-03T15:35:47.334Z,4.30
2023-05-03T15:38:17.955Z,3.70
2023-05-03T15:40:46.101Z,5.13
2023-05-03T15:43:14.258Z,4.37
2023-05-03T15:45:42.349Z,3.73
2023-05-03T15:48:10.461Z,4.73
2023-05-03T15:50:38.661Z,3.97
2023-05-03T15:53:07.431Z,3.47
2023-05-03T15:55:36.892Z,3.70
2023-05-03T15:58:07.474Z,4.10
2023-05-03T16:00:35.779Z,3.80
2023-05-03T16:03:03.762Z,5.53
2023-05-03T16:05:32.582Z,4.50
2023-05-03T16:08:00.886Z,5.30
2023-05-03T16:10:29.640Z,4.53
2023-05-03T16:12:59.105Z,3.80
2023-05-03T16:15:27.176Z,4.40
2023-05-03T16:17:55.389Z,4.30
2023-05-03T16:20:23.619Z,3.60
2023-05-03T16:22:52.875Z,4.23
2023-05-03T16:25:21.703Z,5.23
2023-05-03T16:27:50.214Z,5.10
2023-05-03T16:30:19.923Z,13.87
2023-05-03T16:32:48.251Z,4.60
2023-05-03T16:35:16.447Z,3.60
2023-05-03T16:37:44.756Z,4.47
2023-05-03T16:40:13.138Z,4.40
2023-05-03T16:42:44.374Z,3.20
2023-05-03T16:45:15.858Z,3.80
2023-05-03T16:47:47.881Z,3.50
2023-05-03T16:50:18.445Z,4.27
2023-05-03T16:52:46.811Z,4.93
2023-05-03T16:55:15.374Z,3.57
2023-05-03T16:57:43.862Z,4.17
2023-05-03T17:00:13.500Z,3.53
2023-05-03T17:02:42.435Z,4.00
2023-05-03T17:05:12.996Z,3.90
2023-05-03T17:07:42.186Z,3.90
2023-05-03T17:10:11.183Z,4.27
2023-05-03T17:12:39.557Z,5.00
2023-05-03T17:15:08.869Z,4.07
2023-05-03T17:17:37.084Z,4.63
2023-05-03T17:20:07.807Z,4.37
2023-05-03T17:22:37.296Z,3.60
2023-05-03T17:25:06.281Z,3.77
2023-05-03T17:27:34.362Z,4.07
2023-05-03T17:30:02.920Z,3.90
2023-05-03T17:32:32.180Z,4.50
2023-05-03T17:35:00.473Z,4.67
2023-05-03T17:37:28.690Z,4.67
2023-05-03T17:39:58.264Z,3.77
2023-05-03T17:42:26.618Z,3.40
2023-05-03T17:44:54.930Z,4.03
2023-05-03T17:47:25.190Z,4.23
2023-05-03T17:49:53.986Z,3.60
2023-05-03T17:52:22.607Z,4.00
2023-05-03T17:54:52.145Z,4.37
2023-05-03T17:57:21.708Z,3.60
2023-05-03T17:59:49.925Z,4.60
2023-05-03T18:02:18.106Z,4.13
2023-05-03T18:04:47.000Z,5.40
2023-05-03T18:07:15.755Z,3.93
2023-05-03T18:09:44.010Z,4.63
2023-05-03T18:12:13.694Z,4.17
2023-05-03T18:14:43.156Z,3.40
2023-05-03T18:17:11.206Z,4.33
2023-05-03T18:19:39.484Z,4.00
2023-05-03T18:22:08.242Z,4.50
2023-05-03T18:24:36.435Z,4.97
2023-05-03T18:27:04.464Z,4.73
2023-05-03T18:29:32.799Z,2.90
2023-05-03T18:32:02.421Z,2.20
2023-05-03T18:34:30.561Z,2.70
2023-05-03T18:36:58.635Z,2.43
2023-05-03T18:39:26.746Z,2.23
2023-05-03T18:41:54.818Z,2.60
2023-05-03T18:44:25.812Z,2.53
2023-05-03T18:46:53.929Z,2.50
2023-05-03T18:49:23.875Z,2.47
2023-05-03T18:51:51.721Z,2.60
2023-05-03T18:54:26.321Z,2.10
2023-05-03T18:56:55.460Z,2.47
2023-05-03T18:59:23.656Z,2.83
2023-05-03T19:01:51.622Z,2.73
2023-05-03T19:04:19.711Z,2.30
2023-05-03T19:06:49.062Z,2.53
2023-05-03T19:09:17.073Z,2.87
2023-05-03T19:11:45.414Z,2.53
2023-05-03T19:14:13.457Z,2.67
2023-05-03T19:16:41.800Z,5.07
2023-05-03T19:19:11.710Z,3.50
2023-05-03T19:21:42.260Z,2.80
2023-05-03T19:24:14.060Z,3.97
2023-05-03T19:26:42.529Z,2.80
2023-05-03T19:29:10.628Z,3.60
2023-05-03T19:31:38.876Z,2.87
2023-05-03T19:34:08.177Z,2.90
2023-05-03T19:36:36.154Z,2.60
2023-05-03T19:39:04.446Z,10.87
2023-05-03T19:41:34.508Z,5.33
2023-05-03T19:44:02.515Z,3.80
2023-05-03T19:46:31.040Z,4.83
2023-05-03T19:48:59.088Z,4.13
2023-05-03T19:51:27.957Z,2.77
2023-05-03T19:53:56.127Z,2.90
2023-05-03T19:56:25.094Z,3.20
2023-05-03T19:58:55.388Z,2.63
2023-05-03T20:01:23.472Z,2.03
2023-05-03T20:03:53.432Z,2.53
2023-05-03T20:06:22.223Z,2.40
2023-05-03T20:08:51.151Z,2.10
2023-05-03T20:11:20.568Z,3.03
2023-05-03T20:13:48.613Z,2.90
2023-05-03T20:16:20.884Z,2.37
2023-05-03T20:18:49.791Z,2.40
2023-05-03T20:21:17.920Z,2.57
2023-05-03T20:23:51.359Z,5.20
2023-05-03T20:26:19.471Z,4.03
2023-05-03T20:28:48.216Z,4.07
2023-05-03T20:31:17.911Z,6.90
2023-05-03T20:33:46.017Z,5.40
2023-05-03T20:36:14.579Z,3.40
2023-05-03T20:38:42.629Z,4.10
2023-05-03T20:41:10.613Z,3.27
2023-05-03T20:43:38.611Z,2.87
2023-05-03T20:46:06.763Z,4.70
2023-05-03T20:48:36.341Z,3.30
2023-05-03T20:51:04.651Z,3.07
2023-05-03T20:53:32.692Z,3.23
2023-05-03T20:56:05.298Z,7.30
2023-05-03T20:58:33.610Z,8.73
2023-05-03T21:01:04.181Z,11.80
2023-05-03T21:03:32.665Z,8.50
2023-05-03T21:06:02.094Z,5.27
2023-05-03T21:08:30.293Z,3.50
2023-05-03T21:10:58.406Z,4.20
2023-05-03T21:13:26.439Z,3.10
2023-05-03T21:15:54.462Z,4.83
2023-05-03T21:18:22.460Z,3.37
2023-05-03T21:20:50.424Z,3.40
2023-05-03T21:23:19.868Z,3.10
2023-05-03T21:25:47.849Z,3.70
2023-05-03T21:28:15.866Z,2.67
2023-05-03T21:30:44.112Z,2.93
2023-05-03T21:33:12.221Z,2.73
2023-05-03T21:35:40.314Z,6.90
2023-05-03T21:38:08.627Z,4.43
2023-05-03T21:40:38.074Z,5.17
2023-05-03T21:43:07.819Z,4.70
2023-05-03T21:45:36.002Z,3.37
2023-05-03T21:48:04.107Z,4.40
2023-05-03T21:50:32.395Z,4.13
2023-05-03T21:53:00.404Z,3.57
2023-05-03T21:55:28.715Z,3.80
2023-05-03T21:57:58.136Z,3.97
2023-05-03T22:00:27.313Z,2.77
2023-05-03T22:02:55.377Z,3.37
2023-05-03T22:05:24.359Z,4.10
2023-05-03T22:07:52.317Z,3.03
2023-05-03T22:10:20.546Z,4.10
2023-05-03T22:12:48.634Z,2.73
2023-05-03T22:15:18.267Z,3.80
2023-05-03T22:17:46.309Z,4.10
2023-05-03T22:20:14.565Z,5.20
2023-05-03T22:22:42.653Z,4.53
2023-05-03T22:25:10.959Z,3.20
2023-05-03T22:27:39.005Z,3.50
2023-05-03T22:30:08.976Z,2.80
2023-05-03T22:32:38.494Z,3.10
2023-05-03T22:35:07.143Z,2.90
2023-05-03T22:37:35.141Z,2.73
2023-05-03T22:40:04.456Z,3.23
2023-05-03T22:42:33.194Z,2.80
2023-05-03T22:45:01.284Z,2.77
2023-05-03T22:47:29.458Z,2.57
2023-05-03T22:49:58.894Z,2.80
2023-05-03T22:52:26.956Z,3.10
2023-05-03T22:54:57.282Z,5.03
2023-05-03T22:57:25.351Z,2.60
2023-05-03T22:59:53.385Z,2.33
2023-05-03T23:02:21.726Z,3.00
2023-05-03T23:04:50.114Z,3.13
2023-05-03T23:07:19.478Z,3.70
2023-05-03T23:09:48.601Z,2.60
2023-05-03T23:12:16.654Z,2.77
2023-05-03T23:14:46.109Z,2.10
2023-05-03T23:17:14.104Z,3.30
2023-05-03T23:19:42.082Z,2.30
2023-05-03T23:22:10.481Z,3.30
2023-05-03T23:24:40.120Z,3.30
2023-05-03T23:27:08.258Z,3.40
2023-05-03T23:29:36.695Z,2.80
2023-05-03T23:32:05.515Z,2.40
2023-05-03T23:34:33.823Z,2.97
2023-05-03T23:37:01.859Z,2.50
2023-05-03T23:39:29.860Z,2.50
2023-05-03T23:41:59.188Z,3.70
2023-05-03T23:44:35.293Z,2.43
2023-05-03T23:47:10.619Z,3.23
2023-05-03T23:49:39.593Z,3.07
2023-05-03T23:52:08.416Z,3.27
2023-05-03T23:54:36.551Z,2.90
2023-05-03T23:57:05.899Z,2.87
2023-05-03T23:59:33.925Z,2.50
